createdAt,value
2018-07-23T00:00:36.920Z,1010.02
2018-07-23T00:01:36.922Z,1010.01
2018-07-23T00:02:36.986Z,1010.00
2018-07-23T00:03:36.949Z,1010.02
2018-07-23T00:04:36.968Z,1009.99
2018-07-23T00:05:36.977Z,1010.00
2018-07-23T00:06:36.997Z,1009.97
2018-07-23T00:07:37.009Z,1010.02
2018-07-23T00:08:37.010Z,1010.00
2018-07-23T00:09:37.016Z,1009.98
2018-07-23T00:10:37.050Z,1010.02
2018-07-23T00:11:37.048Z,1009.99
2018-07-23T00:12:37.064Z,1010.01
2018-07-23T00:13:37.073Z,1010.03
2018-07-23T00:14:37.089Z,1010.03
2018-07-23T00:15:37.091Z,1010.00
2018-07-23T00:16:37.113Z,1009.98
2018-07-23T00:17:37.126Z,1009.96
2018-07-23T00:18:37.139Z,1009.93
2018-07-23T00:19:37.239Z,1009.98
2018-07-23T00:20:37.162Z,1009.95
2018-07-23T00:21:37.175Z,1009.98
2018-07-23T00:22:37.188Z,1009.98
2018-07-23T00:23:37.201Z,1009.98
2018-07-23T00:24:37.216Z,1009.96
2018-07-23T00:25:37.221Z,1009.94
2018-07-23T00:26:37.237Z,1009.94
2018-07-23T00:27:37.252Z,1009.94
2018-07-23T00:28:37.263Z,1009.96
2018-07-23T00:29:37.272Z,1009.97
2018-07-23T00:30:37.287Z,1009.97
2018-07-23T00:31:37.295Z,1009.97
2018-07-23T00:32:37.306Z,1009.96
2018-07-23T00:33:37.322Z,1009.99
2018-07-23T00:34:37.336Z,1010.00
2018-07-23T00:35:37.357Z,1009.94
2018-07-23T00:36:37.380Z,1009.97
2018-07-23T00:37:37.381Z,1009.97
2018-07-23T00:38:37.389Z,1010.00
2018-07-23T00:39:37.407Z,1009.98
2018-07-23T00:40:37.422Z,1009.95
2018-07-23T00:41:37.425Z,1009.99
2018-07-23T00:42:37.436Z,1010.03
2018-07-23T00:43:37.448Z,1010.06
2018-07-23T00:44:37.464Z,1010.01
2018-07-23T00:45:37.473Z,1010.03
2018-07-23T00:46:37.490Z,1009.96
2018-07-23T00:47:37.491Z,1009.97
2018-07-23T00:48:37.508Z,1009.99
2018-07-23T00:49:37.525Z,1009.98
2018-07-23T00:50:37.537Z,1009.96
2018-07-23T00:51:37.556Z,1009.98
2018-07-23T00:52:37.564Z,1009.96
2018-07-23T00:53:37.576Z,1009.95
2018-07-23T00:54:37.589Z,1009.96
2018-07-23T00:55:37.599Z,1009.97
2018-07-23T00:56:37.608Z,1009.97
2018-07-23T00:57:37.629Z,1009.95
2018-07-23T00:58:37.641Z,1009.93
2018-07-23T00:59:37.655Z,1009.95
2018-07-23T01:00:37.663Z,1009.91
2018-07-23T01:01:37.675Z,1009.93
2018-07-23T01:02:37.687Z,1009.94
2018-07-23T01:03:37.690Z,1009.96
2018-07-23T01:04:37.711Z,1009.94
2018-07-23T01:05:37.726Z,1009.92
2018-07-23T01:06:37.732Z,1009.95
2018-07-23T01:07:37.749Z,1009.95
2018-07-23T01:08:37.757Z,1009.91
2018-07-23T01:09:37.769Z,1009.95
2018-07-23T01:10:37.781Z,1009.99
2018-07-23T01:11:37.797Z,1009.96
2018-07-23T01:12:37.808Z,1009.97
2018-07-23T01:13:37.821Z,1009.98
2018-07-23T01:14:37.835Z,1009.98
2018-07-23T01:15:37.846Z,1010.02
2018-07-23T01:16:37.858Z,1010.05
2018-07-23T01:17:37.877Z,1010.07
2018-07-23T01:18:37.894Z,1010.04
2018-07-23T01:19:37.892Z,1009.99
2018-07-23T01:20:37.900Z,1010.02
2018-07-23T01:21:37.917Z,1010.01
2018-07-23T01:22:37.932Z,1010.02
2018-07-23T01:23:37.948Z,1009.98
2018-07-23T01:24:37.951Z,1009.99
2018-07-23T01:25:37.967Z,1009.99
2018-07-23T01:26:37.984Z,1010.00
2018-07-23T01:27:37.996Z,1010.02
2018-07-23T01:28:38.005Z,1009.99
2018-07-23T01:29:38.025Z,1010.00
2018-07-23T01:30:38.030Z,1010.05
2018-07-23T01:31:38.044Z,1010.03
2018-07-23T01:32:38.047Z,1010.04
2018-07-23T01:33:38.068Z,1010.05
2018-07-23T01:34:38.079Z,1010.03
2018-07-23T01:35:38.097Z,1010.04
2018-07-23T01:36:38.103Z,1010.04
2018-07-23T01:37:38.111Z,1010.03
2018-07-23T01:38:38.132Z,1010.04
2018-07-23T01:39:38.143Z,1010.01
2018-07-23T01:40:38.150Z,1010.04
2018-07-23T01:41:38.165Z,1010.00
2018-07-23T01:42:38.172Z,1010.03
2018-07-23T01:43:38.187Z,1010.00
2018-07-23T01:44:38.204Z,1010.00
2018-07-23T01:45:38.214Z,1010.04
2018-07-23T01:46:38.223Z,1010.03
2018-07-23T01:47:38.238Z,1010.05
2018-07-23T01:48:38.248Z,1010.02
2018-07-23T01:49:38.276Z,1010.04
2018-07-23T01:51:38.292Z,1010.04
2018-07-23T01:52:38.304Z,1010.03
2018-07-23T01:53:38.306Z,1010.04
2018-07-23T01:54:38.321Z,1010.01
2018-07-23T01:55:38.335Z,1010.01
2018-07-23T01:56:38.349Z,1010.00
2018-07-23T01:57:38.357Z,1009.99
2018-07-23T01:58:38.372Z,1010.02
2018-07-23T01:59:38.402Z,1010.02
2018-07-23T02:00:38.406Z,1010.00
2018-07-23T02:01:38.410Z,1010.01
2018-07-23T02:02:38.422Z,1010.02
2018-07-23T02:03:38.447Z,1010.02
2018-07-23T02:04:38.454Z,1010.06
2018-07-23T02:05:38.459Z,1010.02
2018-07-23T02:06:38.475Z,1010.06
2018-07-23T02:07:38.482Z,1010.05
2018-07-23T02:08:38.517Z,1010.05
2018-07-23T02:09:38.518Z,1010.03
2018-07-23T02:10:38.531Z,1010.07
2018-07-23T02:11:38.543Z,1010.04
2018-07-23T02:12:38.546Z,1010.05
2018-07-23T02:13:38.552Z,1010.05
2018-07-23T02:14:38.560Z,1010.07
2018-07-23T02:15:38.583Z,1010.09
2018-07-23T02:16:38.596Z,1010.06
2018-07-23T02:17:38.598Z,1010.09
2018-07-23T02:18:38.612Z,1010.09
2018-07-23T02:19:38.617Z,1010.10
2018-07-23T02:20:38.662Z,1010.12
2018-07-23T02:21:38.661Z,1010.09
2018-07-23T02:22:38.670Z,1010.09
2018-07-23T02:23:38.674Z,1010.08
2018-07-23T02:24:38.711Z,1010.09
2018-07-23T02:25:38.709Z,1010.09
2018-07-23T02:26:38.723Z,1010.07
2018-07-23T02:27:38.728Z,1010.12
2018-07-23T02:28:38.776Z,1010.12
2018-07-23T02:29:38.749Z,1010.15
2018-07-23T02:30:38.778Z,1010.16
2018-07-23T02:31:38.786Z,1010.14
2018-07-23T02:32:38.798Z,1010.16
2018-07-23T02:33:38.804Z,1010.16
2018-07-23T02:34:38.818Z,1010.19
2018-07-23T02:35:38.845Z,1010.17
2018-07-23T02:36:38.834Z,1010.20
2018-07-23T02:37:38.856Z,1010.17
2018-07-23T02:38:38.871Z,1010.17
2018-07-23T02:39:38.874Z,1010.18
2018-07-23T02:40:38.908Z,1010.13
2018-07-23T02:41:38.910Z,1010.12
2018-07-23T02:42:38.918Z,1010.15
2018-07-23T02:43:38.920Z,1010.16
2018-07-23T02:44:38.931Z,1010.16
2018-07-23T02:45:38.981Z,1010.15
2018-07-23T02:47:38.973Z,1010.17
2018-07-23T02:48:38.985Z,1010.16
2018-07-23T02:49:38.998Z,1010.12
2018-07-23T02:50:39.019Z,1010.12
2018-07-23T02:51:39.058Z,1010.16
2018-07-23T02:52:39.046Z,1010.16
2018-07-23T02:53:39.058Z,1010.18
2018-07-23T02:54:39.082Z,1010.21
2018-07-23T02:55:39.070Z,1010.21
2018-07-23T02:56:39.095Z,1010.20
2018-07-23T02:57:39.089Z,1010.24
2018-07-23T02:58:39.113Z,1010.21
2018-07-23T02:59:39.123Z,1010.23
2018-07-23T03:00:39.129Z,1010.22
2018-07-23T03:01:39.137Z,1010.23
2018-07-23T03:02:39.169Z,1010.27
2018-07-23T03:03:39.175Z,1010.26
2018-07-23T03:04:39.185Z,1010.23
2018-07-23T03:05:39.194Z,1010.27
2018-07-23T03:06:39.215Z,1010.25
2018-07-23T03:07:39.229Z,1010.22
2018-07-23T03:08:39.227Z,1010.23
2018-07-23T03:09:39.261Z,1010.20
2018-07-23T03:10:39.273Z,1010.18
2018-07-23T03:11:39.268Z,1010.21
2018-07-23T03:12:39.275Z,1010.21
2018-07-23T03:13:39.294Z,1010.20
2018-07-23T03:14:39.303Z,1010.25
2018-07-23T03:15:39.313Z,1010.32
2018-07-23T03:16:39.327Z,1010.29
2018-07-23T03:17:39.348Z,1010.30
2018-07-23T03:18:39.343Z,1010.29
2018-07-23T03:19:39.366Z,1010.29
2018-07-23T03:20:39.369Z,1010.31
2018-07-23T03:21:39.380Z,1010.32
2018-07-23T03:22:39.396Z,1010.30
2018-07-23T03:23:39.422Z,1010.35
2018-07-23T03:24:39.428Z,1010.36
2018-07-23T03:25:39.436Z,1010.34
2018-07-23T03:26:39.440Z,1010.32
2018-07-23T03:27:39.465Z,1010.34
2018-07-23T03:28:39.470Z,1010.38
2018-07-23T03:29:39.475Z,1010.40
2018-07-23T03:30:39.495Z,1010.44
2018-07-23T03:31:39.499Z,1010.40
2018-07-23T03:32:39.512Z,1010.41
2018-07-23T03:33:39.531Z,1010.38
2018-07-23T03:34:39.542Z,1010.43
2018-07-23T03:35:39.547Z,1010.42
2018-07-23T03:36:39.567Z,1010.45
2018-07-23T03:37:39.569Z,1010.49
2018-07-23T03:38:39.577Z,1010.47
2018-07-23T03:39:39.592Z,1010.50
2018-07-23T03:40:39.596Z,1010.52
2018-07-23T03:41:39.615Z,1010.53
2018-07-23T03:42:39.627Z,1010.54
2018-07-23T03:43:39.635Z,1010.54
2018-07-23T03:44:39.656Z,1010.55
2018-07-23T03:45:39.677Z,1010.53
2018-07-23T03:46:39.687Z,1010.53
2018-07-23T03:47:39.688Z,1010.58
2018-07-23T03:48:39.700Z,1010.54
2018-07-23T03:49:39.711Z,1010.52
2018-07-23T03:50:39.728Z,1010.52
2018-07-23T03:51:39.738Z,1010.54
2018-07-23T03:52:39.763Z,1010.57
2018-07-23T03:53:39.760Z,1010.58
2018-07-23T03:54:39.768Z,1010.58
2018-07-23T03:55:39.784Z,1010.59
2018-07-23T03:56:39.796Z,1010.61
2018-07-23T03:57:39.801Z,1010.61
2018-07-23T03:58:39.812Z,1010.64
2018-07-23T03:59:39.837Z,1010.67
2018-07-23T04:00:39.839Z,1010.70
2018-07-23T04:01:39.848Z,1010.67
2018-07-23T04:02:39.862Z,1010.71
2018-07-23T04:03:39.872Z,1010.77
2018-07-23T04:04:39.885Z,1010.76
2018-07-23T04:05:39.914Z,1010.74
2018-07-23T04:06:39.918Z,1010.76
2018-07-23T04:07:39.924Z,1010.75
2018-07-23T04:08:39.932Z,1010.77
2018-07-23T04:09:39.947Z,1010.79
2018-07-23T04:10:39.979Z,1010.80
2018-07-23T04:11:39.963Z,1010.76
2018-07-23T04:12:39.982Z,1010.79
2018-07-23T04:13:39.992Z,1010.80
2018-07-23T04:14:40.008Z,1010.79
2018-07-23T04:15:40.018Z,1010.78
2018-07-23T04:16:40.026Z,1010.80
2018-07-23T04:17:40.043Z,1010.81
2018-07-23T04:18:40.052Z,1010.80
2018-07-23T04:19:40.062Z,1010.85
2018-07-23T04:20:40.070Z,1010.86
2018-07-23T04:21:40.087Z,1010.87
2018-07-23T04:22:40.102Z,1010.85
2018-07-23T04:23:40.112Z,1010.84
2018-07-23T04:24:40.135Z,1010.80
2018-07-23T04:25:40.132Z,1010.80
2018-07-23T04:26:40.140Z,1010.75
2018-07-23T04:27:40.162Z,1010.81
2018-07-23T04:28:40.164Z,1010.79
2018-07-23T04:29:40.178Z,1010.82
2018-07-23T04:30:40.191Z,1010.83
2018-07-23T04:31:40.205Z,1010.85
2018-07-23T04:32:40.212Z,1010.86
2018-07-23T04:33:40.228Z,1010.85
2018-07-23T04:34:40.241Z,1010.88
2018-07-23T04:35:40.249Z,1010.87
2018-07-23T04:36:40.260Z,1010.87
2018-07-23T04:37:40.285Z,1010.91
2018-07-23T04:38:40.283Z,1010.90
2018-07-23T04:39:40.293Z,1010.94
2018-07-23T04:40:40.313Z,1010.91
2018-07-23T04:41:40.316Z,1010.91
2018-07-23T04:42:40.330Z,1010.97
2018-07-23T04:43:40.344Z,1010.94
2018-07-23T04:44:40.351Z,1010.98
2018-07-23T04:45:40.369Z,1010.98
2018-07-23T04:46:40.394Z,1010.96
2018-07-23T04:47:40.389Z,1010.97
2018-07-23T04:48:40.400Z,1010.98
2018-07-23T04:49:40.410Z,1010.95
2018-07-23T04:50:40.471Z,1011.00
2018-07-23T04:51:40.440Z,1010.98
2018-07-23T04:52:40.448Z,1010.98
2018-07-23T04:53:40.460Z,1010.96
2018-07-23T04:54:40.475Z,1010.95
2018-07-23T04:55:40.482Z,1010.99
2018-07-23T04:56:40.530Z,1010.97
2018-07-23T04:57:40.512Z,1011.04
2018-07-23T04:58:40.524Z,1010.98
2018-07-23T04:59:40.530Z,1011.01
2018-07-23T05:00:40.539Z,1011.04
2018-07-23T05:01:40.561Z,1011.01
2018-07-23T05:02:40.573Z,1011.01
2018-07-23T05:03:40.577Z,1011.11
2018-07-23T05:04:40.587Z,1011.11
2018-07-23T05:05:40.606Z,1011.13
2018-07-23T05:06:40.614Z,1011.12
2018-07-23T05:07:40.625Z,1011.10
2018-07-23T05:10:40.660Z,1011.07
2018-07-23T05:11:40.673Z,1011.08
2018-07-23T05:12:40.686Z,1011.13
2018-07-23T05:13:40.692Z,1011.16
2018-07-23T05:14:40.709Z,1011.15
2018-07-23T05:15:40.719Z,1011.11
2018-07-23T05:16:40.733Z,1011.18
2018-07-23T05:17:40.746Z,1011.18
2018-07-23T05:18:40.771Z,1011.22
2018-07-23T05:19:40.763Z,1011.21
2018-07-23T05:20:40.780Z,1011.21
2018-07-23T05:21:40.792Z,1011.23
2018-07-23T05:22:40.810Z,1011.21
2018-07-23T05:23:40.824Z,1011.19
2018-07-23T05:24:40.825Z,1011.20
2018-07-23T05:25:40.842Z,1011.19
2018-07-23T05:26:42.846Z,1011.22
2018-07-23T05:27:40.859Z,1011.21
2018-07-23T05:28:40.873Z,1011.23
2018-07-23T05:29:40.890Z,1011.19
2018-07-23T05:30:40.904Z,1011.24
2018-07-23T05:31:40.944Z,1011.27
2018-07-23T05:32:40.919Z,1011.26
2018-07-23T05:33:40.934Z,1011.23
2018-07-23T05:34:40.946Z,1011.25
2018-07-23T05:35:40.957Z,1011.28
2018-07-23T05:36:40.974Z,1011.27
2018-07-23T05:37:40.984Z,1011.24
2018-07-23T05:38:41.043Z,1011.26
2018-07-23T05:39:41.005Z,1011.24
2018-07-23T05:40:41.016Z,1011.24
2018-07-23T05:41:41.026Z,1011.27
2018-07-23T05:42:41.043Z,1011.26
2018-07-23T05:43:41.050Z,1011.26
2018-07-23T05:44:41.066Z,1011.22
2018-07-23T05:45:41.075Z,1011.26
2018-07-23T05:46:41.088Z,1011.24
2018-07-23T05:47:41.101Z,1011.26
2018-07-23T05:48:41.109Z,1011.25
2018-07-23T05:49:41.123Z,1011.27
2018-07-23T05:50:41.134Z,1011.25
2018-07-23T05:51:41.149Z,1011.28
2018-07-23T05:52:41.160Z,1011.27
2018-07-23T05:53:41.177Z,1011.29
2018-07-23T05:54:41.182Z,1011.27
2018-07-23T05:55:41.202Z,1011.27
2018-07-23T05:56:41.203Z,1011.31
2018-07-23T05:57:41.274Z,1011.26
2018-07-23T05:58:41.232Z,1011.26
2018-07-23T05:59:41.247Z,1011.30
2018-07-23T06:00:41.254Z,1011.30
2018-07-23T06:01:41.267Z,1011.27
2018-07-23T06:02:41.284Z,1011.30
2018-07-23T06:03:41.314Z,1011.31
2018-07-23T06:04:41.375Z,1011.29
2018-07-23T06:05:41.316Z,1011.32
2018-07-23T06:06:41.394Z,1011.32
2018-07-23T06:07:41.343Z,1011.33
2018-07-23T06:08:41.361Z,1011.34
2018-07-23T06:09:41.369Z,1011.35
2018-07-23T06:10:41.379Z,1011.35
2018-07-23T06:11:41.391Z,1011.37
2018-07-23T06:12:41.410Z,1011.38
2018-07-23T06:13:41.430Z,1011.36
2018-07-23T06:14:41.434Z,1011.38
2018-07-23T06:15:41.449Z,1011.39
2018-07-23T06:16:41.457Z,1011.39
2018-07-23T06:17:41.467Z,1011.36
2018-07-23T06:18:41.479Z,1011.42
2018-07-23T06:19:41.491Z,1011.38
2018-07-23T06:20:41.522Z,1011.41
2018-07-23T06:21:41.517Z,1011.43
2018-07-23T06:22:41.526Z,1011.46
2018-07-23T06:23:41.539Z,1011.54
2018-07-23T06:24:41.554Z,1011.62
2018-07-23T06:25:41.595Z,1011.66
2018-07-23T06:26:41.585Z,1011.69
2018-07-23T06:27:41.596Z,1011.69
2018-07-23T06:28:41.610Z,1011.74
2018-07-23T06:29:41.624Z,1011.78
2018-07-23T06:31:41.657Z,1011.89
2018-07-23T06:32:41.729Z,1011.88
2018-07-23T06:33:41.676Z,1011.92
2018-07-23T06:34:41.691Z,1011.99
2018-07-23T06:35:41.699Z,1012.02
2018-07-23T06:36:41.723Z,1011.99
2018-07-23T06:37:41.793Z,1012.06
2018-07-23T06:38:41.753Z,1012.08
2018-07-23T06:39:41.778Z,1012.13
2018-07-23T06:40:41.794Z,1012.14
2018-07-23T06:41:41.804Z,1012.15
2018-07-23T06:42:41.822Z,1012.20
2018-07-23T06:43:41.835Z,1012.25
2018-07-23T06:44:41.914Z,1012.32
2018-07-23T06:45:41.868Z,1012.35
2018-07-23T06:46:41.909Z,1012.43
2018-07-23T06:47:41.899Z,1012.44
2018-07-23T06:49:41.930Z,1012.51
2018-07-23T06:50:41.943Z,1012.63
2018-07-23T06:51:41.963Z,1012.74
2018-07-23T06:52:41.978Z,1012.75
2018-07-23T06:53:42.002Z,1012.65
2018-07-23T06:54:42.011Z,1012.65
2018-07-23T06:55:42.049Z,1012.65
2018-07-23T06:56:42.054Z,1012.69
2018-07-23T06:57:42.064Z,1012.66
2018-07-23T06:58:42.068Z,1012.68
2018-07-23T06:59:42.088Z,1012.68
2018-07-23T07:00:42.145Z,1012.66
2018-07-23T07:01:42.128Z,1012.65
2018-07-23T07:02:42.142Z,1012.78
2018-07-23T07:03:42.170Z,1012.77
2018-07-23T07:04:42.182Z,1012.74
2018-07-23T07:05:42.196Z,1012.75
2018-07-23T07:06:42.212Z,1012.67
2018-07-23T07:07:42.225Z,1012.63
2018-07-23T07:08:42.250Z,1012.74
2018-07-23T07:09:42.259Z,1012.77
2018-07-23T07:10:42.272Z,1012.68
2018-07-23T07:11:42.295Z,1012.59
2018-07-23T07:12:42.325Z,1012.56
2018-07-23T07:13:42.338Z,1012.56
2018-07-23T07:14:42.367Z,1012.59
2018-07-23T07:15:42.368Z,1012.53
2018-07-23T07:16:42.373Z,1012.50
2018-07-23T07:17:42.408Z,1012.49
2018-07-23T07:18:42.409Z,1012.46
2018-07-23T07:19:42.436Z,1012.41
2018-07-23T07:20:42.454Z,1012.41
2018-07-23T07:21:42.464Z,1012.42
2018-07-23T07:22:42.516Z,1012.42
2018-07-23T07:23:42.498Z,1012.34
2018-07-23T07:24:42.517Z,1012.36
2018-07-23T07:25:42.538Z,1012.35
2018-07-23T07:26:42.557Z,1012.39
2018-07-23T07:27:42.574Z,1012.39
2018-07-23T07:28:42.587Z,1012.43
2018-07-23T07:29:42.603Z,1012.44
2018-07-23T07:30:42.618Z,1012.45
2018-07-23T07:31:42.636Z,1012.45
2018-07-23T07:32:42.653Z,1012.50
2018-07-23T07:33:42.674Z,1012.46
2018-07-23T07:34:42.700Z,1012.44
2018-07-23T07:35:42.713Z,1012.48
2018-07-23T07:36:42.724Z,1012.46
2018-07-23T07:37:42.739Z,1012.46
2018-07-23T07:38:42.760Z,1012.53
2018-07-23T07:39:42.771Z,1012.57
2018-07-23T07:40:42.798Z,1012.56
2018-07-23T07:41:42.810Z,1012.62
2018-07-23T07:42:42.833Z,1012.69
2018-07-23T07:43:42.861Z,1012.72
2018-07-23T07:44:42.868Z,1012.80
2018-07-23T07:45:42.890Z,1012.83
2018-07-23T07:46:42.907Z,1012.83
2018-07-23T07:47:42.924Z,1012.89
2018-07-23T07:48:42.932Z,1012.92
2018-07-23T07:49:42.957Z,1012.87
2018-07-23T07:50:42.965Z,1012.90
2018-07-23T07:51:42.987Z,1012.95
2018-07-23T07:52:43.009Z,1012.97
2018-07-23T07:53:43.027Z,1012.96
2018-07-23T07:54:43.056Z,1012.97
2018-07-23T07:55:43.063Z,1013.00
2018-07-23T07:56:43.081Z,1013.00
2018-07-23T07:57:43.099Z,1013.05
2018-07-23T07:58:43.115Z,1013.10
2018-07-23T07:59:43.146Z,1013.15
2018-07-23T08:00:43.152Z,1013.08
2018-07-23T08:01:43.165Z,1013.12
2018-07-23T08:02:43.187Z,1013.13
2018-07-23T08:03:43.215Z,1013.18
2018-07-23T08:04:43.225Z,1013.21
2018-07-23T08:05:43.243Z,1013.22
2018-07-23T08:06:43.257Z,1013.22
2018-07-23T08:07:43.294Z,1013.28
2018-07-23T08:08:43.297Z,1013.24
2018-07-23T08:09:43.321Z,1013.19
2018-07-23T08:10:43.337Z,1013.34
2018-07-23T08:11:43.362Z,1013.38
2018-07-23T08:12:43.381Z,1013.61
2018-07-23T08:13:43.387Z,1013.84
2018-07-23T08:14:43.409Z,1013.89
2018-07-23T08:15:43.427Z,1014.06
2018-07-23T08:16:43.460Z,1014.63
2018-07-23T08:17:43.467Z,1015.10
2018-07-23T08:18:43.515Z,1015.45
2018-07-23T08:19:43.511Z,1016.07
2018-07-23T08:20:43.525Z,1016.95
2018-07-23T08:21:43.544Z,1017.56
2018-07-23T08:22:43.571Z,1018.26
2018-07-23T08:23:43.579Z,1018.49
2018-07-23T08:24:43.604Z,1019.10
2018-07-23T08:25:43.624Z,1020.28
2018-07-23T08:26:43.638Z,1020.49
2018-07-23T08:27:43.679Z,1021.07
2018-07-23T08:28:43.678Z,1021.88
2018-07-23T08:29:43.710Z,1022.57
2018-07-23T08:30:43.720Z,1023.56
2018-07-23T08:31:43.808Z,1025.62
2018-07-23T08:32:43.755Z,1026.84
2018-07-23T08:33:43.769Z,1027.41
2018-07-23T08:34:43.795Z,1028.77
2018-07-23T08:35:43.809Z,1029.94
2018-07-23T08:36:43.826Z,1031.52
2018-07-23T08:37:43.850Z,1031.13
2018-07-23T08:38:43.874Z,1030.96
2018-07-23T08:39:43.893Z,1033.53
2018-07-23T08:40:43.920Z,1035.39
2018-07-23T08:41:43.926Z,1033.03
2018-07-23T08:42:43.950Z,1031.64
2018-07-23T08:43:43.960Z,1033.55
2018-07-23T08:44:43.988Z,1034.56
2018-07-23T08:45:44.007Z,1035.22
2018-07-23T08:46:44.032Z,1036.18
2018-07-23T08:47:44.054Z,1036.72
2018-07-23T08:48:44.064Z,1037.57
2018-07-23T08:49:44.084Z,1037.93
2018-07-23T08:50:44.110Z,1037.40
2018-07-23T08:51:44.128Z,1037.93
2018-07-23T08:52:44.144Z,1039.02
2018-07-23T08:53:44.211Z,1039.11
2018-07-23T08:54:44.185Z,1038.50
2018-07-23T08:55:44.218Z,1038.85
2018-07-23T08:56:44.227Z,1038.06
2018-07-23T08:57:44.253Z,1036.70
2018-07-23T08:58:44.267Z,1037.80
2018-07-23T09:00:44.313Z,1038.99
2018-07-23T09:01:44.326Z,1039.12
2018-07-23T09:02:44.347Z,1040.49
2018-07-23T09:03:44.363Z,1042.01
2018-07-23T09:04:44.379Z,1041.72
2018-07-23T09:05:44.413Z,1041.47
2018-07-23T09:06:44.427Z,1041.72
2018-07-23T09:07:44.448Z,1041.14
2018-07-23T09:08:44.466Z,1043.55
2018-07-23T09:09:44.476Z,1044.28
2018-07-23T09:10:44.505Z,1043.59
2018-07-23T09:11:44.519Z,1043.58
2018-07-23T09:12:44.549Z,1043.49
2018-07-23T09:13:44.570Z,1041.68
2018-07-23T09:14:44.588Z,1039.54
2018-07-23T09:15:44.637Z,1043.05
2018-07-23T09:16:44.630Z,1043.74
2018-07-23T09:17:44.649Z,1043.98
2018-07-23T09:18:44.661Z,1044.19
2018-07-23T09:19:44.687Z,1041.04
2018-07-23T09:20:44.703Z,1042.33
2018-07-23T09:21:44.731Z,1045.98
2018-07-23T09:22:44.759Z,1044.99
2018-07-23T09:23:44.774Z,1043.68
2018-07-23T09:24:44.798Z,1042.72
2018-07-23T09:25:44.820Z,1041.69
2018-07-23T09:26:44.841Z,1043.37
2018-07-23T09:27:44.852Z,1042.42
2018-07-23T09:28:44.876Z,1040.99
2018-07-23T09:29:44.891Z,1041.32
2018-07-23T09:30:44.917Z,1042.62
2018-07-23T09:31:44.932Z,1039.95
2018-07-23T09:32:44.963Z,1040.07
2018-07-23T09:33:44.981Z,1040.93
2018-07-23T09:34:45.003Z,1039.50
2018-07-23T09:35:45.013Z,1038.21
2018-07-23T09:36:45.043Z,1038.28
2018-07-23T09:37:45.064Z,1038.29
2018-07-23T09:38:45.081Z,1037.51
2018-07-23T09:39:45.089Z,1035.63
2018-07-23T09:40:45.123Z,1035.53
2018-07-23T09:41:45.144Z,1035.92
2018-07-23T09:42:45.161Z,1034.97
2018-07-23T09:43:45.184Z,1034.13
2018-07-23T09:44:45.204Z,1033.76
2018-07-23T09:45:45.227Z,1033.93
2018-07-23T09:46:45.247Z,1033.75
2018-07-23T09:47:45.264Z,1032.58
2018-07-23T09:48:45.284Z,1031.80
2018-07-23T09:50:45.332Z,1029.39
2018-07-23T09:51:45.353Z,1029.25
2018-07-23T09:52:45.414Z,1029.30
2018-07-23T09:53:45.395Z,1029.05
2018-07-23T09:54:45.420Z,1028.64
2018-07-23T09:55:45.433Z,1028.52
2018-07-23T09:56:45.460Z,1027.70
2018-07-23T09:57:45.488Z,1027.31
2018-07-23T09:58:45.503Z,1027.47
2018-07-23T09:59:45.520Z,1027.54
2018-07-23T10:00:45.538Z,1027.28
2018-07-23T10:01:45.554Z,1026.53
2018-07-23T10:02:45.593Z,1026.14
2018-07-23T10:03:45.599Z,1025.82
2018-07-23T10:04:45.632Z,1025.53
2018-07-23T10:05:45.658Z,1025.61
2018-07-23T10:06:45.670Z,1025.65
2018-07-23T10:07:45.685Z,1025.78
2018-07-23T10:08:45.707Z,1025.81
2018-07-23T10:09:45.741Z,1025.84
2018-07-23T10:10:45.759Z,1025.38
2018-07-23T10:12:45.797Z,1024.43
2018-07-23T10:13:45.825Z,1024.30
2018-07-23T10:14:45.839Z,1024.05
2018-07-23T10:15:45.862Z,1023.95
2018-07-23T10:16:45.922Z,1023.23
2018-07-23T10:17:45.911Z,1022.71
2018-07-23T10:18:45.925Z,1022.68
2018-07-23T10:19:45.941Z,1022.43
2018-07-23T10:20:45.963Z,1022.16
2018-07-23T10:21:45.985Z,1022.00
2018-07-23T10:22:46.007Z,1021.79
2018-07-23T10:23:46.027Z,1021.53
2018-07-23T10:24:46.050Z,1021.42
2018-07-23T10:25:46.071Z,1021.41
2018-07-23T10:26:46.094Z,1021.46
2018-07-23T10:27:46.120Z,1021.44
2018-07-23T10:28:46.137Z,1021.05
2018-07-23T10:29:46.164Z,1021.33
2018-07-23T10:30:46.182Z,1021.70
2018-07-23T10:31:46.202Z,1021.83
2018-07-23T10:32:46.222Z,1021.98
2018-07-23T10:33:46.242Z,1022.03
2018-07-23T10:34:46.269Z,1022.17
2018-07-23T10:35:46.289Z,1022.05
2018-07-23T10:36:46.307Z,1021.61
2018-07-23T10:37:46.338Z,1021.34
2018-07-23T10:38:46.358Z,1021.29
2018-07-23T10:39:46.377Z,1021.21
2018-07-23T10:40:46.409Z,1020.76
2018-07-23T10:41:46.423Z,1020.50
2018-07-23T10:42:46.445Z,1020.30
2018-07-23T10:43:46.478Z,1020.02
2018-07-23T10:44:46.494Z,1019.77
2018-07-23T10:45:46.510Z,1019.46
2018-07-23T10:46:46.586Z,1019.15
2018-07-23T10:47:46.588Z,1018.82
2018-07-23T10:48:46.589Z,1019.07
2018-07-23T10:49:46.593Z,1019.20
2018-07-23T10:50:46.621Z,1019.05
2018-07-23T10:51:46.640Z,1018.76
2018-07-23T10:52:46.661Z,1018.34
2018-07-23T10:53:46.676Z,1018.38
2018-07-23T10:54:46.710Z,1018.07
2018-07-23T10:55:46.734Z,1017.84
2018-07-23T10:56:46.754Z,1017.73
2018-07-23T10:57:46.780Z,1017.82
2018-07-23T10:58:46.796Z,1017.66
2018-07-23T10:59:46.813Z,1017.33
2018-07-23T11:00:46.844Z,1017.19
2018-07-23T11:01:46.857Z,1016.73
2018-07-23T11:02:46.883Z,1016.40
2018-07-23T11:03:46.902Z,1016.25
2018-07-23T11:04:46.923Z,1015.91
2018-07-23T11:05:46.948Z,1015.75
2018-07-23T11:06:46.970Z,1015.41
2018-07-23T11:07:46.993Z,1014.92
2018-07-23T11:08:47.014Z,1014.50
2018-07-23T11:09:47.033Z,1014.03
2018-07-23T11:10:47.058Z,1013.70
2018-07-23T11:11:47.090Z,1013.45
2018-07-23T11:12:47.169Z,1013.35
2018-07-23T11:13:47.122Z,1013.18
2018-07-23T11:14:47.143Z,1013.03
2018-07-23T11:15:47.167Z,1012.95
2018-07-23T11:16:47.186Z,1012.87
2018-07-23T11:17:47.213Z,1012.77
2018-07-23T11:18:47.238Z,1012.76
2018-07-23T11:19:47.253Z,1012.67
2018-07-23T11:20:47.275Z,1012.62
2018-07-23T11:21:47.295Z,1012.63
2018-07-23T11:22:47.403Z,1012.63
2018-07-23T11:23:47.340Z,1012.59
2018-07-23T11:24:47.415Z,1012.58
2018-07-23T11:26:47.406Z,1012.52
2018-07-23T11:27:47.428Z,1012.45
2018-07-23T11:28:47.445Z,1012.38
2018-07-23T11:29:47.473Z,1012.33
2018-07-23T11:30:47.496Z,1012.32
2018-07-23T11:31:47.524Z,1012.30
2018-07-23T11:32:47.543Z,1012.28
2018-07-23T11:33:47.561Z,1012.28
2018-07-23T11:34:47.587Z,1012.26
2018-07-23T11:35:47.604Z,1012.28
2018-07-23T11:36:47.623Z,1012.25
2018-07-23T11:37:47.648Z,1012.24
2018-07-23T11:38:47.664Z,1012.21
2018-07-23T11:39:47.692Z,1012.22
2018-07-23T11:40:47.713Z,1012.20
2018-07-23T11:41:47.738Z,1012.24
2018-07-23T11:42:47.839Z,1012.25
2018-07-23T11:43:47.776Z,1012.25
2018-07-23T11:44:47.801Z,1012.23
2018-07-23T11:45:47.828Z,1012.26
2018-07-23T11:46:47.846Z,1012.23
2018-07-23T11:47:47.872Z,1012.19
2018-07-23T11:48:47.895Z,1012.18
2018-07-23T11:49:47.921Z,1012.17
2018-07-23T11:50:47.962Z,1012.09
2018-07-23T11:51:47.956Z,1012.10
2018-07-23T11:52:47.976Z,1012.11
2018-07-23T11:53:48.008Z,1012.04
2018-07-23T11:54:48.019Z,1012.05
2018-07-23T11:55:48.046Z,1012.10
2018-07-23T11:56:48.092Z,1012.08
2018-07-23T11:57:48.118Z,1012.09
2018-07-23T11:58:48.112Z,1012.10
2018-07-23T11:59:48.123Z,1012.10
2018-07-23T12:00:48.156Z,1012.07
2018-07-23T12:01:48.216Z,1012.06
2018-07-23T12:02:48.208Z,1012.04
2018-07-23T12:03:48.222Z,1012.00
2018-07-23T12:04:48.244Z,1012.03
2018-07-23T12:05:48.283Z,1011.97
2018-07-23T12:06:48.293Z,1011.93
2018-07-23T12:07:48.333Z,1012.02
2018-07-23T12:08:48.338Z,1012.01
2018-07-23T12:09:48.374Z,1012.04
2018-07-23T12:10:48.380Z,1011.95
2018-07-23T12:12:48.425Z,1012.01
2018-07-23T12:13:48.449Z,1012.00
2018-07-23T12:14:48.480Z,1012.01
2018-07-23T12:15:48.494Z,1011.94
2018-07-23T12:16:48.515Z,1011.94